Time;durP1;ratioP1;P1;durP2;ratioP2;P2;SDS_P1;SDS_P2;PMS_P1;PMS_P2;Temp;Humidity;BMP_temperature;BMP_pressure;BME280_temperature;BME280_humidity;BME280_pressure;Samples;Min_cycle;Max_cycle;Signal;HPM_P1;HPM_P2
2021/11/04 00:00:21;;;;;;;17.80;14.47;;;8.70;99.90;;;9.71;100.00;98661.97;5032328;28;20194;-68
2021/11/04 00:02:49;;;;;;;16.20;14.50;;;8.80;99.90;;;9.50;100.00;98668.19;5033285;28;20225;-66
2021/11/04 00:05:18;;;;;;;16.27;14.50;;;8.70;99.90;;;9.53;100.00;98662.31;5032285;28;20272;-67
2021/11/04 00:07:50;;;;;;;15.87;14.27;;;8.70;99.90;;;9.60;100.00;98671.81;5032354;28;20233;-68
2021/11/04 00:10:19;;;;;;;17.43;15.23;;;8.70;99.90;;;9.53;100.00;98676.56;5032464;28;20261;-67
2021/11/04 00:12:49;;;;;;;17.63;15.20;;;8.70;99.90;;;9.32;100.00;98677.34;5034414;28;20240;-67
2021/11/04 00:15:17;;;;;;;16.67;14.80;;;8.70;99.90;;;9.34;100.00;98683.28;5036113;28;20208;-68
2021/11/04 00:17:46;;;;;;;17.07;15.27;;;8.60;99.90;;;9.40;100.00;98676.13;5035755;28;20210;-67
2021/11/04 00:20:18;;;;;;;18.40;15.90;;;8.60;99.90;;;9.44;100.00;98691.50;5036031;28;20249;-67
2021/11/04 00:22:49;;;;;;;18.17;15.73;;;8.60;99.90;;;9.36;100.00;98686.56;5035557;28;20674;-67
2021/11/04 00:25:19;;;;;;;17.30;15.37;;;8.60;99.90;;;9.55;100.00;98677.13;5035581;28;20696;-67
2021/11/04 00:27:48;;;;;;;17.80;15.50;;;8.60;99.90;;;9.51;100.00;98670.63;5035524;28;20669;-66
2021/11/04 00:30:18;;;;;;;17.23;14.67;;;8.60;99.90;;;9.37;100.00;98663.97;5035468;28;20202;-67
2021/11/04 00:32:49;;;;;;;17.43;15.63;;;8.60;99.90;;;9.46;100.00;98651.75;5035451;28;20230;-67
2021/11/04 00:35:18;;;;;;;16.47;14.77;;;8.60;99.90;;;9.27;100.00;98653.09;5035782;28;20221;-67
2021/11/04 00:37:49;;;;;;;16.63;14.93;;;8.50;99.90;;;9.19;100.00;98648.16;5035430;28;20296;-67
2021/11/04 00:40:21;;;;;;;17.87;15.97;;;8.50;99.90;;;9.33;100.00;98644.06;5035288;28;20281;-67
2021/11/04 00:42:50;;;;;;;17.17;15.37;;;8.40;99.90;;;9.31;100.00;98638.13;5035513;28;20191;-67
2021/11/04 00:45:18;;;;;;;17.50;15.43;;;8.40;99.90;;;9.50;100.00;98644.00;5035111;28;20752;-67
2021/11/04 00:47:46;;;;;;;16.10;14.40;;;8.50;99.90;;;9.27;100.00;98641.53;5035309;28;20248;-68
2021/11/04 00:50:15;;;;;;;16.93;15.13;;;8.40;99.90;;;9.21;100.00;98631.78;5035146;28;20634;-67
2021/11/04 00:52:43;;;;;;;18.67;15.43;;;8.40;99.90;;;9.16;100.00;98632.53;5035051;28;20252;-69
2021/11/04 00:55:12;;;;;;;16.90;15.17;;;8.40;99.90;;;9.05;100.00;98627.28;5034897;28;20289;-67
2021/11/04 00:57:42;;;;;;;18.23;16.23;;;8.30;99.90;;;8.97;100.00;98617.75;5035223;28;20321;-67
2021/11/04 01:00:13;;;;;;;18.53;15.80;;;8.30;99.90;;;9.04;100.00;98620.25;5034928;28;20684;-67
2021/11/04 01:02:43;;;;;;;20.03;17.57;;;8.30;99.90;;;9.05;100.00;98606.59;5035012;28;20742;-67
2021/11/04 01:05:11;;;;;;;18.40;16.27;;;8.30;99.90;;;9.13;100.00;98611.50;5034950;28;20701;-66
2021/11/04 01:07:40;;;;;;;19.30;16.67;;;8.30;99.90;;;9.05;100.00;98611.94;5035037;28;20198;-67
2021/11/04 01:10:09;;;;;;;17.23;15.43;;;8.30;99.90;;;8.96;100.00;98612.63;5035045;28;20296;-66
2021/11/04 01:12:39;;;;;;;18.70;16.43;;;8.30;99.90;;;9.04;100.00;98610.34;5034994;28;20297;-66
2021/11/04 01:15:08;;;;;;;17.57;15.57;;;8.30;99.90;;;9.12;100.00;98609.91;5035426;28;20194;-66
2021/11/04 01:17:37;;;;;;;18.03;16.13;;;8.20;99.90;;;8.99;100.00;98612.13;5034810;28;20298;-67
2021/11/04 01:20:07;;;;;;;18.03;15.70;;;8.20;99.90;;;8.96;100.00;98610.78;5034766;28;20245;-66
2021/11/04 01:22:37;;;;;;;18.43;16.27;;;8.20;99.90;;;9.02;100.00;98599.03;5034961;28;20301;-66
2021/11/04 01:25:06;;;;;;;20.40;15.80;;;8.30;99.90;;;9.15;100.00;98604.03;5034378;28;20229;-66
2021/11/04 01:27:34;;;;;;;20.30;17.00;;;8.30;99.90;;;9.05;100.00;98593.16;5034834;28;20206;-67
2021/11/04 01:30:06;;;;;;;18.77;16.77;;;8.30;99.90;;;9.17;100.00;98590.34;5034888;28;20632;-67
2021/11/04 01:32:36;;;;;;;18.73;16.07;;;8.30;99.90;;;9.23;100.00;98589.38;5034869;28;20554;-67
2021/11/04 01:35:07;;;;;;;19.07;16.97;;;8.30;99.90;;;9.21;100.00;98595.00;5035130;28;20242;-67
2021/11/04 01:37:36;;;;;;;17.83;15.93;;;8.30;99.90;;;9.06;100.00;98577.84;5034504;28;20643;-66
2021/11/04 01:40:06;;;;;;;20.03;17.17;;;8.30;99.90;;;9.15;100.00;98562.94;5034704;28;20198;-67
2021/11/04 01:42:35;;;;;;;19.30;17.30;;;8.30;99.90;;;8.88;100.00;98560.16;5034831;28;20201;-67
2021/11/04 01:45:05;;;;;;;20.60;17.23;;;8.20;99.90;;;8.85;100.00;98554.47;5034576;28;20253;-68
2021/11/04 01:47:33;;;;;;;20.83;17.43;;;8.20;99.90;;;8.97;100.00;98550.63;5034778;28;20636;-67
2021/11/04 01:50:01;;;;;;;21.03;17.43;;;8.20;99.90;;;9.08;100.00;98544.31;5034852;28;20198;-66
2021/11/04 01:52:29;;;;;;;18.37;16.17;;;8.20;99.90;;;8.93;100.00;98554.84;5035054;28;20198;-66
2021/11/04 01:54:57;;;;;;;18.30;16.33;;;8.20;99.90;;;8.86;100.00;98542.69;5034105;28;20631;-66
2021/11/04 01:57:25;;;;;;;18.43;16.43;;;8.20;99.90;;;8.86;100.00;98540.00;5034047;28;20226;-67
2021/11/04 01:59:53;;;;;;;19.10;16.97;;;8.10;99.90;;;8.92;100.00;98558.59;5034280;28;20293;-67
2021/11/04 02:02:34;;;;;;;18.77;16.77;;;8.10;99.90;;;8.85;100.00;98559.84;5033742;28;20213;-67
2021/11/04 02:05:07;;;;;;;19.63;17.53;;;8.10;99.90;;;8.91;100.00;98554.31;5033998;28;20193;-66
2021/11/04 02:07:43;;;;;;;18.93;16.93;;;8.10;99.90;;;8.93;100.00;98554.84;5033672;28;20222;-68
2021/11/04 02:10:18;;;;;;;19.77;17.67;;;8.20;99.90;;;8.92;100.00;98555.09;5034023;28;20643;-67
2021/11/04 02:12:58;;;;;;;19.83;17.73;;;8.20;99.90;;;9.00;100.00;98538.59;5034215;28;20213;-67
2021/11/04 02:15:27;;;;;;;19.90;17.67;;;8.20;99.90;;;8.91;100.00;98538.19;5033893;28;20276;-66
2021/11/04 02:17:58;;;;;;;20.47;17.97;;;8.20;99.90;;;8.94;100.00;98535.00;5033567;28;20321;-66
2021/11/04 02:20:42;;;;;;;20.17;17.57;;;8.20;99.90;;;9.09;100.00;98543.25;5033820;28;20210;-67
2021/11/04 02:23:21;;;;;;;19.50;17.40;;;8.20;99.90;;;8.99;100.00;98553.88;5033357;28;20285;-66
2021/11/04 02:25:53;;;;;;;20.03;17.07;;;8.20;99.90;;;8.98;100.00;98552.22;5033756;28;20208;-66
2021/11/04 02:28:23;;;;;;;21.10;18.43;;;8.20;99.90;;;9.08;100.00;98549.66;5033422;28;20709;-66
2021/11/04 02:30:51;;;;;;;20.40;17.20;;;8.30;99.90;;;9.15;100.00;98553.00;5033634;28;20202;-67
2021/11/04 02:33:22;;;;;;;24.00;18.30;;;8.30;99.90;;;9.16;100.00;98549.25;5033497;28;20202;-66
2021/11/04 02:35:53;;;;;;;21.30;17.83;;;8.30;99.90;;;9.03;100.00;98543.44;5032347;28;20197;-67
2021/11/04 02:38:27;;;;;;;20.20;17.97;;;8.30;99.90;;;8.95;100.00;98533.94;5033253;28;20273;-67
2021/11/04 02:40:58;;;;;;;20.53;17.77;;;8.20;99.90;;;9.08;100.00;98532.78;5033619;28;20196;-65
2021/11/04 02:43:30;;;;;;;19.50;17.53;;;8.30;99.90;;;9.07;100.00;98528.44;5033211;28;20253;-66
2021/11/04 02:46:00;;;;;;;20.43;17.30;;;8.20;99.90;;;9.00;100.00;98534.00;5033540;28;20213;-66
2021/11/04 02:48:29;;;;;;;21.13;17.70;;;8.20;99.90;;;8.89;100.00;98536.81;5033159;28;20237;-66
2021/11/04 02:50:58;;;;;;;19.10;17.10;;;8.10;99.90;;;8.89;100.00;98534.13;5033427;28;20272;-68
2021/11/04 02:53:29;;;;;;;19.70;17.60;;;8.10;99.90;;;9.01;100.00;98541.00;5032862;28;20670;-66
2021/11/04 02:55:59;;;;;;;19.97;17.20;;;8.10;99.90;;;8.95;100.00;98541.16;5032636;28;20225;-66
2021/11/04 02:58:28;;;;;;;19.60;17.43;;;8.10;99.90;;;8.86;100.00;98527.41;5033155;28;20186;-66
2021/11/04 03:01:03;;;;;;;18.43;16.47;;;8.10;99.90;;;8.81;100.00;98532.66;5032810;28;20749;-66
2021/11/04 03:03:36;;;;;;;19.77;17.67;;;8.10;99.90;;;9.06;100.00;98516.09;5033047;28;20232;-66
2021/11/04 03:06:04;;;;;;;18.77;16.33;;;8.10;99.90;;;9.15;100.00;98504.63;5033169;28;20214;-67
2021/11/04 03:08:33;;;;;;;18.60;16.60;;;8.20;99.90;;;9.37;100.00;98502.75;5032872;28;20201;-66
2021/11/04 03:11:02;;;;;;;19.03;16.97;;;8.20;99.90;;;9.35;100.00;98496.78;5032990;28;20296;-66
2021/11/04 03:13:31;;;;;;;18.23;15.57;;;8.30;99.90;;;9.17;100.00;98493.63;5033102;28;20204;-66
2021/11/04 03:16:04;;;;;;;19.77;17.30;;;8.20;99.90;;;9.07;100.00;98488.97;5032973;28;20198;-67
2021/11/04 03:18:33;;;;;;;18.57;16.57;;;8.20;99.90;;;9.01;100.00;98498.03;5032450;28;20191;-67
2021/11/04 03:21:01;;;;;;;18.57;16.57;;;8.20;99.90;;;8.96;100.00;98505.22;5032755;28;20206;-66
2021/11/04 03:23:29;;;;;;;18.50;16.60;;;8.10;99.90;;;8.85;100.00;98498.91;5032471;28;20666;-67
2021/11/04 03:26:00;;;;;;;18.93;16.70;;;8.10;99.90;;;8.76;100.00;98511.13;5032964;28;20234;-66
2021/11/04 03:28:32;;;;;;;18.23;16.00;;;8.00;99.90;;;8.78;100.00;98503.63;5033033;28;20682;-66
2021/11/04 03:31:01;;;;;;;20.67;17.67;;;8.00;99.90;;;8.81;100.00;98505.03;5032900;28;20289;-67
2021/11/04 03:33:31;;;;;;;21.43;17.10;;;8.00;99.90;;;8.99;100.00;98499.34;5032137;28;20297;-67
2021/11/04 03:36:01;;;;;;;20.50;16.87;;;8.00;99.90;;;9.09;100.00;98505.66;5032730;28;20662;-67
2021/11/04 03:38:31;;;;;;;18.33;16.30;;;8.10;99.90;;;8.85;100.00;98498.91;5032556;28;20204;-67
2021/11/04 03:41:01;;;;;;;18.40;16.27;;;8.10;99.90;;;8.98;100.00;98501.19;5032661;28;20282;-67
2021/11/04 03:43:31;;;;;;;21.63;17.27;;;8.10;99.90;;;8.99;100.00;98507.41;5032678;28;20297;-65
2021/11/04 03:46:00;;;;;;;19.57;16.70;;;8.10;99.90;;;8.87;100.00;98510.22;5035885;28;20690;-64
2021/11/04 03:48:29;;;;;;;18.87;16.87;;;8.10;99.90;;;9.02;100.00;98512.25;5036563;28;20230;-68
2021/11/04 03:50:59;;;;;;;21.40;17.47;;;8.10;99.90;;;9.00;100.00;98500.97;5036546;28;20296;-66
2021/11/04 03:53:27;;;;;;;19.63;15.80;;;8.10;99.90;;;9.20;100.00;98506.59;5036176;28;20833;-66
2021/11/04 03:55:55;;;;;;;19.13;17.00;;;8.10;99.90;;;9.06;100.00;98521.44;5036235;28;20306;-66
2021/11/04 03:58:26;;;;;;;18.43;16.47;;;8.10;99.90;;;8.85;100.00;98515.00;5036076;28;20562;-66
2021/11/04 04:00:56;;;;;;;18.73;16.60;;;8.00;99.90;;;8.98;100.00;98503.88;5036301;28;20286;-66
2021/11/04 04:03:25;;;;;;;17.20;15.27;;;8.10;99.90;;;8.91;100.00;98495.22;5036426;28;20186;-67
2021/11/04 04:06:00;;;;;;;19.10;16.37;;;8.00;99.90;;;8.85;100.00;98512.31;5036145;28;20204;-67
2021/11/04 04:08:30;;;;;;;18.67;16.43;;;8.00;99.90;;;9.25;100.00;98503.97;5036101;28;20297;-67
2021/11/04 04:10:59;;;;;;;17.70;15.80;;;8.10;99.90;;;8.92;100.00;98504.91;5035909;28;20733;-66
2021/11/04 04:13:27;;;;;;;17.60;15.73;;;8.00;99.90;;;8.94;100.00;98501.97;5036459;28;20202;-67
2021/11/04 04:15:56;;;;;;;18.50;16.50;;;8.00;99.90;;;8.78;100.00;98508.22;5036128;28;20296;-66
2021/11/04 04:18:25;;;;;;;20.27;16.60;;;8.00;99.90;;;8.72;100.00;98504.66;5035517;28;20704;-68
2021/11/04 04:20:53;;;;;;;20.47;16.80;;;7.90;99.90;;;8.60;100.00;98507.44;5035933;28;20649;-66
2021/11/04 04:23:21;;;;;;;18.80;16.27;;;7.90;99.90;;;8.66;100.00;98504.81;5035861;28;20285;-68
2021/11/04 04:25:49;;;;;;;19.20;16.93;;;7.80;99.90;;;8.70;100.00;98506.75;5035879;28;20297;-66
2021/11/04 04:28:19;;;;;;;18.90;16.90;;;7.80;99.90;;;8.64;100.00;98500.50;5035703;28;20221;-66
2021/11/04 04:30:47;;;;;;;17.50;15.57;;;7.80;99.90;;;8.80;100.00;98492.66;5035716;28;20202;-67
2021/11/04 04:33:17;;;;;;;18.87;15.83;;;7.80;99.90;;;8.64;100.00;98483.59;5035623;28;20292;-66
2021/11/04 04:35:45;;;;;;;18.77;16.40;;;7.80;99.90;;;8.77;100.00;98477.88;5035733;28;20289;-66
2021/11/04 04:38:13;;;;;;;16.80;15.00;;;7.80;99.90;;;8.69;100.00;98474.78;5035562;28;20281;-66
2021/11/04 04:40:41;;;;;;;18.20;14.50;;;7.80;99.90;;;8.57;100.00;98464.19;5035651;28;20232;-67
2021/11/04 04:43:09;;;;;;;19.10;15.57;;;7.80;99.90;;;8.51;100.00;98454.44;5035617;28;20241;-66
2021/11/04 04:45:37;;;;;;;17.97;14.47;;;7.80;99.90;;;8.44;100.00;98459.16;5035517;28;20216;-66
2021/11/04 04:48:06;;;;;;;15.70;13.93;;;7.70;99.90;;;8.60;100.00;98461.81;5034937;28;20228;-66
2021/11/04 04:50:35;;;;;;;16.87;14.07;;;7.70;99.90;;;8.39;100.00;98469.81;5035557;28;20656;-66
2021/11/04 04:53:03;;;;;;;16.47;14.23;;;7.70;99.90;;;8.44;100.00;98469.88;5034863;28;20305;-67
2021/11/04 04:55:31;;;;;;;15.17;13.67;;;7.60;99.90;;;8.34;100.00;98469.75;5035179;28;20292;-66
2021/11/04 04:57:59;;;;;;;15.13;13.53;;;7.70;99.90;;;8.69;100.00;98453.31;5034739;28;20320;-67
2021/11/04 05:00:28;;;;;;;16.13;13.40;;;7.70;99.90;;;8.58;100.00;98450.50;5034522;28;20202;-67
2021/11/04 05:02:57;;;;;;;15.47;13.73;;;7.70;99.90;;;8.65;100.00;98442.28;5035070;28;20206;-67
2021/11/04 05:05:25;;;;;;;15.47;13.07;;;7.70;99.90;;;8.68;100.00;98431.03;5035096;28;20285;-67
2021/11/04 05:07:54;;;;;;;16.33;13.03;;;7.70;99.90;;;8.53;100.00;98428.97;5034762;28;20599;-67
2021/11/04 05:10:22;;;;;;;14.43;12.93;;;7.70;99.90;;;8.49;100.00;98422.47;5034698;28;20234;-67
2021/11/04 05:12:50;;;;;;;14.97;13.37;;;7.60;99.90;;;8.31;100.00;98416.59;5034983;28;20288;-68
2021/11/04 05:15:18;;;;;;;16.47;13.33;;;7.60;99.90;;;8.31;100.00;98420.09;5035000;28;20296;-66
2021/11/04 05:17:46;;;;;;;14.73;12.97;;;7.50;99.90;;;8.40;100.00;98421.31;5034528;28;20233;-67
2021/11/04 05:20:15;;;;;;;15.13;13.20;;;7.50;99.90;;;8.21;100.00;98414.56;5034550;28;20748;-67
2021/11/04 05:22:43;;;;;;;16.00;13.53;;;7.50;99.90;;;8.37;100.00;98411.03;5034589;28;20271;-66
2021/11/04 05:25:12;;;;;;;14.80;12.90;;;7.50;99.90;;;8.35;100.00;98401.63;5034428;28;20233;-66
2021/11/04 05:27:47;;;;;;;15.50;13.73;;;7.50;99.90;;;8.30;100.00;98396.22;5034411;28;20385;-67
2021/11/04 05:30:17;;;;;;;15.90;13.47;;;7.50;99.90;;;8.40;100.00;98396.34;5034895;28;20221;-67
2021/11/04 05:32:47;;;;;;;15.57;13.33;;;7.50;99.90;;;8.47;100.00;98400.44;5034494;28;20192;-67
2021/11/04 05:35:18;;;;;;;17.00;13.23;;;7.50;99.90;;;8.27;100.00;98394.03;5034221;28;20666;-67
2021/11/04 05:37:47;;;;;;;15.60;13.77;;;7.50;99.90;;;8.21;100.00;98389.59;5034143;28;20274;-68
2021/11/04 05:40:16;;;;;;;14.60;12.90;;;7.50;99.90;;;8.45;100.00;98388.34;5034434;28;20202;-67
2021/11/04 05:42:45;;;;;;;16.60;13.43;;;7.50;99.90;;;8.39;100.00;98390.16;5034349;28;20293;-67
2021/11/04 05:45:13;;;;;;;15.23;12.93;;;7.50;99.90;;;8.34;100.00;98391.94;5034224;28;20695;-68
2021/11/04 05:47:41;;;;;;;14.47;12.70;;;7.50;99.90;;;8.52;100.00;98380.94;5034073;28;20218;-67
2021/11/04 05:50:09;;;;;;;18.90;13.77;;;7.50;99.90;;;8.23;100.00;98384.81;5034108;28;20208;-68
2021/11/04 05:52:37;;;;;;;15.43;13.37;;;7.50;99.90;;;8.31;100.00;98379.84;5033733;28;20795;-68
2021/11/04 05:55:06;;;;;;;19.20;13.90;;;7.50;99.90;;;8.39;100.00;98378.59;5033778;28;20680;-68
2021/11/04 05:57:35;;;;;;;15.53;13.83;;;7.50;99.90;;;8.21;100.00;98384.25;5033470;28;20766;-67
2021/11/04 06:00:06;;;;;;;16.73;14.27;;;7.40;99.90;;;8.24;100.00;98383.78;5033846;28;20289;-68
2021/11/04 06:02:34;;;;;;;16.60;13.70;;;7.40;99.90;;;8.09;100.00;98378.16;5033262;28;20669;-68
2021/11/04 06:05:02;;;;;;;18.93;14.77;;;7.40;99.90;;;8.27;100.00;98383.31;5033533;28;20689;-68
2021/11/04 06:07:29;;;;;;;17.37;14.70;;;7.40;99.90;;;8.16;100.00;98385.00;5033244;28;20688;-67
2021/11/04 06:09:58;;;;;;;16.80;13.80;;;7.40;99.90;;;8.14;100.00;98386.28;5033414;28;20210;-68
2021/11/04 06:12:26;;;;;;;16.63;13.83;;;7.30;99.90;;;8.12;100.00;98380.34;5033711;28;20233;-67
2021/11/04 06:14:55;;;;;;;16.17;13.57;;;7.30;99.90;;;8.07;100.00;98385.66;5033195;28;20244;-68
2021/11/04 06:17:23;;;;;;;16.60;14.57;;;7.30;99.90;;;8.18;100.00;98371.34;5033158;28;20240;-68
2021/11/04 06:19:51;;;;;;;14.50;13.00;;;7.30;99.90;;;8.14;100.00;98367.50;5033513;28;20298;-68
2021/11/04 06:22:19;;;;;;;14.73;13.13;;;7.30;99.90;;;8.20;100.00;98383.41;5033411;28;20300;-68
2021/11/04 06:24:47;;;;;;;16.80;13.80;;;7.40;99.90;;;8.46;100.00;98385.41;5033586;28;20221;-67
2021/11/04 06:27:15;;;;;;;14.93;12.37;;;7.40;99.90;;;8.11;100.00;98386.78;5032843;28;20208;-67
2021/11/04 06:29:43;;;;;;;16.57;13.30;;;7.30;99.90;;;8.28;100.00;98390.28;5033344;28;20198;-67
2021/11/04 06:32:12;;;;;;;16.40;13.50;;;7.40;99.90;;;8.15;100.00;98388.72;5033089;28;20202;-68
2021/11/04 06:34:40;;;;;;;16.07;13.57;;;7.30;99.90;;;8.17;100.00;98399.19;5033087;28;20202;-68
2021/11/04 06:37:08;;;;;;;18.07;14.80;;;7.40;99.90;;;8.09;100.00;98394.25;5033187;28;20202;-69
2021/11/04 06:39:36;;;;;;;19.13;14.70;;;7.30;99.90;;;8.05;100.00;98395.84;5033018;28;20302;-69
2021/11/04 06:42:05;;;;;;;20.27;15.63;;;7.30;99.90;;;7.96;100.00;98391.94;5032878;28;20267;-68
2021/11/04 06:44:33;;;;;;;20.53;14.73;;;7.20;99.90;;;7.95;100.00;98401.06;5032778;28;20296;-68
2021/11/04 06:47:03;;;;;;;17.77;14.77;;;7.20;99.90;;;8.24;100.00;98397.19;5032869;28;20241;-67
2021/11/04 06:49:36;;;;;;;18.87;14.83;;;7.30;99.90;;;8.13;100.00;98406.94;5032485;28;20620;-69
2021/11/04 06:52:14;;;;;;;17.60;14.07;;;7.30;99.90;;;8.03;100.00;98406.81;5033076;28;20273;-69
2021/11/04 06:54:48;;;;;;;18.43;14.57;;;7.30;99.90;;;8.07;100.00;98405.25;5033066;28;20214;-68
2021/11/04 06:57:20;;;;;;;17.83;14.40;;;7.30;99.90;;;8.28;100.00;98409.06;5032583;28;20263;-68
2021/11/04 06:59:51;;;;;;;18.40;14.40;;;7.30;99.90;;;8.27;100.00;98400.19;5032752;28;20273;-69
2021/11/04 07:02:33;;;;;;;17.00;13.80;;;7.30;99.90;;;8.07;100.00;98399.06;5032374;28;20218;-68
2021/11/04 07:05:04;;;;;;;19.57;14.37;;;7.20;99.90;;;8.04;100.00;98410.28;5032942;28;20277;-68
2021/11/04 07:07:43;;;;;;;19.27;14.50;;;7.20;99.90;;;8.22;100.00;98410.03;5032557;28;20626;-67
2021/11/04 07:10:13;;;;;;;20.93;15.60;;;7.30;99.90;;;7.96;100.00;98402.66;5030670;28;20281;-68
2021/11/04 07:12:45;;;;;;;18.30;14.67;;;7.20;99.90;;;7.94;100.00;98408.28;5031926;28;20285;-68
2021/11/04 07:15:15;;;;;;;20.97;15.47;;;7.20;99.90;;;8.01;100.00;98408.91;5032656;28;20186;-68
2021/11/04 07:17:45;;;;;;;19.83;16.03;;;7.10;99.90;;;8.04;100.00;98396.88;5032111;28;20290;-69
2021/11/04 07:20:17;;;;;;;21.03;16.00;;;7.20;99.90;;;8.08;100.00;98390.78;5032564;28;20292;-68
2021/11/04 07:22:52;;;;;;;17.97;14.80;;;7.20;99.90;;;8.15;100.00;98383.34;5032005;28;20283;-68
2021/11/04 07:25:22;;;;;;;18.53;15.40;;;7.20;99.90;;;8.09;100.00;98376.31;5032705;28;20196;-67
2021/11/04 07:27:59;;;;;;;20.80;15.80;;;7.20;99.90;;;8.12;100.00;98380.34;5032617;28;20272;-69
2021/11/04 07:30:29;;;;;;;17.63;14.77;;;7.20;99.90;;;8.10;100.00;98377.91;5032450;28;20587;-68
2021/11/04 07:32:59;;;;;;;17.53;14.30;;;7.20;99.90;;;8.00;100.00;98377.78;5032107;28;20268;-68
2021/11/04 07:35:31;;;;;;;16.13;14.07;;;7.20;99.90;;;8.16;100.00;98376.13;5032395;28;20595;-68
2021/11/04 07:38:00;;;;;;;15.70;13.03;;;7.20;99.90;;;7.97;100.00;98362.19;5032300;28;20189;-67
2021/11/04 07:40:30;;;;;;;17.67;14.20;;;7.20;99.90;;;8.14;100.00;98367.50;5032121;28;20213;-68
2021/11/04 07:43:00;;;;;;;16.27;14.20;;;7.20;99.90;;;8.06;100.00;98357.22;5032598;28;20183;-68
2021/11/04 07:45:31;;;;;;;16.90;13.73;;;7.20;99.90;;;8.15;100.00;98361.09;5032275;28;20256;-68
2021/11/04 07:48:00;;;;;;;15.10;12.93;;;7.20;99.90;;;7.99;100.00;98360.09;5031969;28;20316;-68
2021/11/04 07:50:32;;;;;;;15.97;13.17;;;7.20;99.90;;;8.00;100.00;98360.91;5032375;28;20198;-68
2021/11/04 07:53:01;;;;;;;16.07;13.20;;;7.20;99.90;;;8.06;100.00;98363.41;5032272;28;20516;-68
2021/11/04 07:55:29;;;;;;;15.70;13.33;;;7.20;99.90;;;7.97;100.00;98350.66;5032192;28;20198;-68
2021/11/04 07:57:57;;;;;;;15.37;13.03;;;7.20;99.90;;;7.98;100.00;98352.28;5031451;28;20324;-68
2021/11/04 08:00:29;;;;;;;16.37;13.90;;;7.20;99.90;;;8.01;100.00;98357.97;5031977;28;20205;-69
2021/11/04 08:02:57;;;;;;;15.57;13.80;;;7.10;99.90;;;8.13;100.00;98352.50;5032080;28;20190;-67
2021/11/04 08:05:28;;;;;;;16.53;13.30;;;7.20;99.90;;;8.02;100.00;98351.53;5032164;28;20300;-67
2021/11/04 08:07:56;;;;;;;18.33;14.60;;;7.10;99.90;;;8.16;100.00;98336.72;5032062;28;20277;-69
2021/11/04 08:10:27;;;;;;;16.23;13.63;;;7.20;99.90;;;8.04;100.00;98343.25;5032222;28;20218;-70
2021/11/04 08:12:59;;;;;;;17.50;14.20;;;7.20;99.90;;;8.05;100.00;98344.88;5031898;28;20293;-69
2021/11/04 08:15:27;;;;;;;15.27;13.67;;;7.20;99.90;;;8.19;100.00;98338.91;5031823;28;20690;-67
2021/11/04 08:17:55;;;;;;;17.87;14.60;;;7.20;99.90;;;8.14;100.00;98336.16;5031861;28;20210;-68
2021/11/04 08:20:23;;;;;;;17.23;14.50;;;7.20;99.90;;;8.21;100.00;98339.47;5031780;28;20672;-68
2021/11/04 08:22:52;;;;;;;17.07;13.87;;;7.30;99.90;;;8.22;100.00;98333.03;5032159;28;20297;-68
2021/11/04 08:25:20;;;;;;;19.37;15.07;;;7.20;99.90;;;8.21;100.00;98333.28;5032120;28;20289;-68
2021/11/04 08:27:48;;;;;;;15.93;13.33;;;7.20;99.90;;;8.18;100.00;98333.78;5031935;28;20238;-68
2021/11/04 08:30:17;;;;;;;16.23;12.93;;;7.30;99.90;;;8.26;100.00;98338.75;5031660;28;20229;-67
2021/11/04 08:32:45;;;;;;;16.33;13.37;;;7.30;99.90;;;8.27;100.00;98340.38;5031814;28;20226;-67
2021/11/04 08:35:13;;;;;;;15.50;13.00;;;7.30;99.90;;;8.18;100.00;98339.16;5034162;28;20206;-67
2021/11/04 08:37:42;;;;;;;15.70;12.83;;;7.30;99.90;;;8.01;100.00;98341.88;5035364;28;20292;-67
2021/11/04 08:40:13;;;;;;;16.17;13.33;;;7.20;99.90;;;8.06;100.00;98343.81;5035280;28;20209;-67
2021/11/04 08:42:41;;;;;;;15.40;13.43;;;7.20;99.90;;;7.93;100.00;98344.97;5035040;28;20277;-68
2021/11/04 08:45:11;;;;;;;14.47;12.63;;;7.20;99.90;;;8.04;100.00;98344.06;5035214;28;20582;-67
2021/11/04 08:47:40;;;;;;;13.37;11.50;;;7.20;99.90;;;8.07;100.00;98343.56;5035080;28;20677;-67
2021/11/04 08:50:13;;;;;;;13.03;11.27;;;7.20;99.90;;;8.13;100.00;98355.19;5035187;28;20225;-67
2021/11/04 08:52:41;;;;;;;14.37;12.03;;;7.20;99.90;;;8.15;100.00;98350.38;5035020;28;20237;-68
2021/11/04 08:55:11;;;;;;;12.90;11.07;;;7.20;99.90;;;8.10;100.00;98339.59;5035008;28;20299;-67
2021/11/04 08:57:40;;;;;;;11.50;10.30;;;7.20;99.90;;;8.26;100.00;98344.09;5034852;28;20335;-67
2021/11/04 09:00:11;;;;;;;11.13;9.53;;;7.30;99.90;;;8.14;100.00;98346.06;5034995;28;20202;-65
2021/11/04 09:02:39;;;;;;;11.63;9.77;;;7.20;99.90;;;8.05;100.00;98352.94;5034954;28;20276;-66
2021/11/04 09:05:08;;;;;;;11.53;9.57;;;7.20;99.90;;;8.26;100.00;98341.44;5034987;28;20241;-67
2021/11/04 09:07:39;;;;;;;11.17;9.80;;;7.20;99.90;;;8.24;100.00;98348.91;5034928;28;20232;-66
2021/11/04 09:10:12;;;;;;;11.60;9.90;;;7.30;99.90;;;8.00;100.00;98344.81;5034997;28;20591;-66
2021/11/04 09:12:42;;;;;;;11.37;9.77;;;7.20;99.90;;;8.17;100.00;98337.50;5034965;28;20186;-66
2021/11/04 09:15:12;;;;;;;10.27;9.17;;;7.20;99.90;;;8.01;100.00;98338.38;5035591;28;20240;-66
2021/11/04 09:17:42;;;;;;;12.20;9.73;;;7.20;99.90;;;8.25;100.00;98343.28;5035128;28;20224;-67
2021/11/04 09:20:15;;;;;;;11.60;9.77;;;7.30;99.90;;;8.22;100.00;98334.94;5034957;28;20662;-66
2021/11/04 09:22:46;;;;;;;10.73;8.93;;;7.20;99.90;;;8.13;100.00;98334.53;5034425;28;20190;-66
2021/11/04 09:25:18;;;;;;;9.63;8.07;;;7.30;99.90;;;8.04;100.00;98340.56;5034332;28;20725;-66
2021/11/04 09:27:47;;;;;;;10.37;8.40;;;7.20;99.90;;;7.94;100.00;98330.53;5034581;28;20186;-66
2021/11/04 09:30:17;;;;;;;9.83;7.97;;;7.20;99.90;;;8.09;100.00;98324.53;5034056;28;20235;-66
2021/11/04 09:32:46;;;;;;;7.73;6.93;;;7.20;99.90;;;8.17;100.00;98330.28;5034105;28;20222;-67
2021/11/04 09:35:15;;;;;;;9.17;7.60;;;7.20;99.90;;;8.03;100.00;98321.00;5034349;28;20216;-66
2021/11/04 09:37:44;;;;;;;9.67;8.50;;;7.20;99.90;;;7.91;100.00;98320.31;5033984;28;20297;-66
2021/11/04 09:40:17;;;;;;;8.33;7.27;;;7.10;99.90;;;7.98;100.00;98325.47;5034073;28;20297;-66
2021/11/04 09:42:47;;;;;;;8.90;7.90;;;7.10;99.90;;;7.87;100.00;98331.75;5033999;28;20278;-66
2021/11/04 09:45:16;;;;;;;8.53;7.63;;;7.10;99.90;;;7.91;100.00;98325.66;5034067;28;20340;-66
2021/11/04 09:47:44;;;;;;;9.63;8.33;;;7.10;99.90;;;7.98;100.00;98322.81;5034271;28;20209;-67
2021/11/04 09:50:15;;;;;;;9.30;7.40;;;7.20;99.90;;;7.95;100.00;98326.00;5034037;28;20723;-66
2021/11/04 09:52:45;;;;;;;8.77;7.60;;;7.20;99.90;;;8.00;100.00;98318.00;5033884;28;20281;-66
2021/11/04 09:55:19;;;;;;;9.77;7.57;;;7.20;99.90;;;8.05;100.00;98326.13;5034332;28;20277;-66
2021/11/04 09:57:49;;;;;;;9.87;7.63;;;7.10;99.90;;;7.89;100.00;98325.09;5033676;28;20225;-65
2021/11/04 10:00:21;;;;;;;8.33;7.33;;;7.10;99.90;;;8.04;100.00;98329.84;5033991;28;20281;-66
2021/11/04 10:03:03;;;;;;;8.63;6.70;;;7.10;99.90;;;8.00;100.00;98321.47;5033627;28;20269;-66
2021/11/04 10:05:42;;;;;;;8.27;6.50;;;7.20;99.90;;;8.16;100.00;98317.13;5033599;28;20209;-66
2021/11/04 10:08:13;;;;;;;7.67;6.60;;;7.20;99.90;;;8.15;100.00;98331.59;5033671;28;20182;-66
2021/11/04 10:10:44;;;;;;;7.40;6.60;;;7.20;99.90;;;8.06;100.00;98330.41;5033701;28;20297;-66
2021/11/04 10:13:13;;;;;;;8.20;6.60;;;7.20;99.90;;;8.15;100.00;98331.59;5033499;28;20282;-66
2021/11/04 10:15:43;;;;;;;8.80;6.80;;;7.20;99.90;;;8.18;100.00;98331.09;5033644;28;20256;-66
2021/11/04 10:18:14;;;;;;;8.77;6.73;;;7.20;99.90;;;8.04;100.00;98333.34;5033440;28;20208;-66
2021/11/04 10:20:43;;;;;;;7.40;6.00;;;7.20;99.90;;;8.21;100.00;98327.91;5033389;28;20221;-66
2021/11/04 10:23:14;;;;;;;7.07;5.70;;;7.20;99.90;;;7.98;100.00;98328.94;5033131;28;20653;-66
2021/11/04 10:25:43;;;;;;;6.07;5.40;;;7.20;99.90;;;8.09;100.00;98340.63;5033560;28;20281;-66